Time;durP1;ratioP1;P1;durP2;ratioP2;P2;SDS_P1;SDS_P2;PMS_P1;PMS_P2;Temp;Humidity;BMP_temperature;BMP_pressure;BME280_temperature;BME280_humidity;BME280_pressure;Samples;Min_cycle;Max_cycle;Signal;HPM_P1;HPM_P2
2022/09/21 00:00:12;;;;;;;;;;;12.70;77.50;;;;;;6119266;23;19988;-84
2022/09/21 00:02:38;;;;;;;;;;;12.60;76.70;;;;;;6118711;23;19927;-83
2022/09/21 00:05:05;;;;;;;;;;;12.50;76.40;;;;;;6119271;23;19931;-83
2022/09/21 00:07:32;;;;;;;;;;;12.50;75.80;;;;;;6118770;23;19917;-83
2022/09/21 00:09:59;;;;;;;;;;;12.50;75.60;;;;;;6119506;23;20278;-83
2022/09/21 00:12:25;;;;;;;;;;;12.50;75.40;;;;;;6119149;23;19991;-83
2022/09/21 00:14:52;;;;;;;;;;;12.50;74.60;;;;;;6119541;23;19925;-83
2022/09/21 00:17:20;;;;;;;;;;;12.50;75.80;;;;;;6118989;23;19917;-83
2022/09/21 00:19:47;;;;;;;;;;;12.40;77.00;;;;;;6058494;23;19995;-83
2022/09/21 00:22:14;;;;;;;;;;;12.40;76.10;;;;;;6071629;23;19944;-83
2022/09/21 00:24:42;;;;;;;;;;;12.30;76.30;;;;;;6034264;23;20290;-83
2022/09/21 00:27:09;;;;;;;;;;;12.40;76.00;;;;;;6119139;23;20350;-83
2022/09/21 00:29:36;;;;;;;;;;;12.40;76.40;;;;;;6117978;23;19917;-82
2022/09/21 00:32:02;;;;;;;;;;;12.40;76.00;;;;;;6119411;23;20365;-83
2022/09/21 00:34:31;;;;;;;;;;;12.40;76.00;;;;;;6118550;23;19943;-83
2022/09/21 00:36:57;;;;;;;;;;;12.40;76.40;;;;;;6119116;23;20000;-83
2022/09/21 00:39:24;;;;;;;;;;;12.30;75.90;;;;;;6119055;23;19928;-82
2022/09/21 00:41:52;;;;;;;;;;;12.30;78.10;;;;;;6118424;23;19917;-82
2022/09/21 00:44:19;;;;;;;;;;;12.20;77.60;;;;;;6096090;23;19931;-83
2022/09/21 00:46:47;;;;;;;;;;;12.10;77.50;;;;;;6117976;23;19945;-83
2022/09/21 00:49:14;;;;;;;;;;;12.10;77.70;;;;;;6119172;23;19923;-82
2022/09/21 00:51:41;;;;;;;;;;;12.10;77.20;;;;;;6118075;23;19996;-82
2022/09/21 00:54:11;;;;;;;;;;;12.10;77.40;;;;;;6119127;23;19921;-83
2022/09/21 00:56:38;;;;;;;;;;;12.10;78.10;;;;;;6118628;23;20335;-83
2022/09/21 00:59:05;;;;;;;;;;;12.00;79.10;;;;;;6119326;23;19924;-83
2022/09/21 01:01:33;;;;;;;;;;;12.00;78.40;;;;;;6118896;23;19940;-81
2022/09/21 01:03:59;;;;;;;;;;;12.00;79.10;;;;;;6118762;23;19928;-81
2022/09/21 01:06:26;;;;;;;;;;;12.00;79.00;;;;;;6118690;23;20247;-79
2022/09/21 01:08:54;;;;;;;;;;;12.00;78.40;;;;;;6118158;23;20004;-80
2022/09/21 01:11:27;;;;;;;;;;;12.00;78.10;;;;;;6119023;23;19997;-80
2022/09/21 01:13:59;;;;;;;;;;;12.00;78.00;;;;;;6118212;23;19941;-81
2022/09/21 01:17:01;;;;;;;;;;;12.00;78.00;;;;;;6118933;23;20307;-80
2022/09/21 01:19:46;;;;;;;;;;;12.00;78.50;;;;;;6083988;23;19987;-80
2022/09/21 01:22:17;;;;;;;;;;;12.00;78.10;;;;;;6095091;23;20323;-81
2022/09/21 01:24:57;;;;;;;;;;;12.00;78.90;;;;;;6118433;23;20357;-81
2022/09/21 01:27:30;;;;;;;;;;;12.00;78.80;;;;;;6118533;23;19921;-81
2022/09/21 01:30:01;;;;;;;;;;;11.90;78.60;;;;;;6118844;23;19949;-80
2022/09/21 01:32:30;;;;;;;;;;;11.90;78.10;;;;;;6118463;23;19944;-80
2022/09/21 01:35:09;;;;;;;;;;;11.90;79.10;;;;;;6119263;23;19917;-80
2022/09/21 01:37:51;;;;;;;;;;;11.90;78.50;;;;;;6107618;23;19921;-80
2022/09/21 01:40:21;;;;;;;;;;;11.90;79.80;;;;;;6120336;23;19917;-81
2022/09/21 01:42:48;;;;;;;;;;;11.80;79.10;;;;;;6120670;23;20249;-80
2022/09/21 01:45:18;;;;;;;;;;;11.70;81.90;;;;;;6119866;23;20253;-80
2022/09/21 01:47:46;;;;;;;;;;;11.70;81.40;;;;;;6120804;23;19996;-81
2022/09/21 01:50:13;;;;;;;;;;;11.70;81.00;;;;;;6119815;23;19924;-80
2022/09/21 01:52:49;;;;;;;;;;;11.70;82.40;;;;;;6120561;23;20307;-81
2022/09/21 01:55:27;;;;;;;;;;;11.70;81.60;;;;;;6119942;23;19996;-80
2022/09/21 01:58:10;;;;;;;;;;;11.70;81.70;;;;;;6120698;23;19928;-81
2022/09/21 02:00:38;;;;;;;;;;;11.80;81.60;;;;;;6119918;23;19924;-81
2022/09/21 02:03:11;;;;;;;;;;;11.80;82.30;;;;;;6120847;23;20331;-80
2022/09/21 02:05:39;;;;;;;;;;;11.90;82.20;;;;;;6119462;23;19928;-81
2022/09/21 02:08:07;;;;;;;;;;;11.90;82.80;;;;;;6120259;23;19984;-80
2022/09/21 02:10:39;;;;;;;;;;;12.00;83.60;;;;;;6119861;23;19921;-80
2022/09/21 02:13:06;;;;;;;;;;;12.00;82.70;;;;;;6120433;23;19923;-80
2022/09/21 02:15:51;;;;;;;;;;;12.00;82.30;;;;;;6095562;23;20227;-80
2022/09/21 02:18:29;;;;;;;;;;;12.10;83.60;;;;;;6094997;23;20377;-80
2022/09/21 02:20:58;;;;;;;;;;;12.10;83.30;;;;;;6096219;23;19924;-80
2022/09/21 02:23:24;;;;;;;;;;;12.10;82.60;;;;;;6119527;23;20249;-80
2022/09/21 02:25:55;;;;;;;;;;;12.20;82.70;;;;;;6120515;23;19924;-81
2022/09/21 02:28:25;;;;;;;;;;;12.20;82.50;;;;;;6119519;23;20004;-80
2022/09/21 02:31:00;;;;;;;;;;;12.10;83.30;;;;;;6120480;23;20250;-80
2022/09/21 02:33:33;;;;;;;;;;;12.10;83.20;;;;;;6119820;23;19917;-81
2022/09/21 02:36:07;;;;;;;;;;;12.20;83.70;;;;;;6120313;23;19917;-81
2022/09/21 02:38:53;;;;;;;;;;;12.20;84.20;;;;;;6119279;23;20302;-81
2022/09/21 02:41:38;;;;;;;;;;;12.30;83.60;;;;;;6119528;23;19997;-80
2022/09/21 02:44:09;;;;;;;;;;;12.30;83.40;;;;;;6120038;23;19996;-81
2022/09/21 02:46:39;;;;;;;;;;;12.30;84.10;;;;;;6096604;23;19917;-81
2022/09/21 02:49:08;;;;;;;;;;;12.30;84.80;;;;;;6119681;23;20294;-81
2022/09/21 02:51:38;;;;;;;;;;;12.30;84.30;;;;;;6119588;23;19984;-80
2022/09/21 02:54:07;;;;;;;;;;;12.30;84.80;;;;;;6097378;23;19996;-80
2022/09/21 02:56:34;;;;;;;;;;;12.30;84.30;;;;;;6119478;23;20350;-81
2022/09/21 02:59:03;;;;;;;;;;;12.40;83.80;;;;;;6120105;23;20255;-82
2022/09/21 03:01:30;;;;;;;;;;;12.40;84.30;;;;;;6119160;23;19917;-81
2022/09/21 03:03:57;;;;;;;;;;;12.50;83.50;;;;;;6120093;23;19922;-82
2022/09/21 03:06:24;;;;;;;;;;;12.60;83.10;;;;;;6094945;23;19944;-80
2022/09/21 03:08:51;;;;;;;;;;;12.60;83.50;;;;;;6120223;23;19917;-81
2022/09/21 03:11:18;;;;;;;;;;;12.70;84.30;;;;;;6120016;23;19941;-81
2022/09/21 03:13:45;;;;;;;;;;;12.80;84.00;;;;;;6119155;23;20008;-81
2022/09/21 03:16:12;;;;;;;;;;;12.90;82.60;;;;;;6119973;23;19917;-81
2022/09/21 03:18:42;;;;;;;;;;;13.00;82.00;;;;;;6118879;23;19927;-82
2022/09/21 03:21:09;;;;;;;;;;;13.00;80.50;;;;;;6119572;23;19921;-81
2022/09/21 03:23:36;;;;;;;;;;;13.10;76.90;;;;;;6096404;23;19996;-81
2022/09/21 03:26:03;;;;;;;;;;;13.20;75.60;;;;;;6119672;23;20385;-81
2022/09/21 03:28:29;;;;;;;;;;;13.30;72.70;;;;;;6119254;23;19951;-81
2022/09/21 03:30:56;;;;;;;;;;;13.40;76.20;;;;;;6095531;23;20245;-81
2022/09/21 03:33:24;;;;;;;;;;;13.40;75.60;;;;;;6120156;23;19917;-82
2022/09/21 03:35:51;;;;;;;;;;;13.50;74.40;;;;;;6118879;23;19952;-81
2022/09/21 03:38:20;;;;;;;;;;;13.60;73.30;;;;;;6119871;23;20020;-81
2022/09/21 03:40:47;;;;;;;;;;;13.60;72.50;;;;;;6118859;23;19921;-81
2022/09/21 03:43:14;;;;;;;;;;;13.60;76.10;;;;;;6119748;23;19923;-81
2022/09/21 03:45:41;;;;;;;;;;;13.70;75.50;;;;;;6118946;23;19948;-82
2022/09/21 03:48:09;;;;;;;;;;;13.70;75.00;;;;;;6119576;23;20576;-81
2022/09/21 03:50:36;;;;;;;;;;;13.70;73.40;;;;;;6118976;23;19924;-81
2022/09/21 03:53:04;;;;;;;;;;;13.80;72.40;;;;;;6119928;23;19921;-81
2022/09/21 03:55:32;;;;;;;;;;;13.80;71.60;;;;;;6118921;23;19917;-81
2022/09/21 03:57:58;;;;;;;;;;;13.90;69.90;;;;;;6119782;23;19921;-81
2022/09/21 04:00:25;;;;;;;;;;;13.90;70.50;;;;;;6119499;23;19917;-81
2022/09/21 04:02:52;;;;;;;;;;;13.90;74.90;;;;;;6118783;23;19944;-81
2022/09/21 04:05:19;;;;;;;;;;;13.60;75.80;;;;;;6094748;23;19921;-81
2022/09/21 04:07:46;;;;;;;;;;;13.60;74.60;;;;;;6094690;23;19944;-81
2022/09/21 04:10:14;;;;;;;;;;;13.60;74.70;;;;;;6119445;23;19921;-81
2022/09/21 04:12:42;;;;;;;;;;;13.70;74.90;;;;;;6118608;23;19917;-81
2022/09/21 04:15:13;;;;;;;;;;;13.70;74.30;;;;;;6119351;23;19945;-81
2022/09/21 04:17:40;;;;;;;;;;;13.80;72.30;;;;;;6118266;23;19917;-81
2022/09/21 04:20:07;;;;;;;;;;;13.80;71.40;;;;;;6094983;23;19992;-81
2022/09/21 04:22:35;;;;;;;;;;;13.90;70.40;;;;;;6095140;23;19992;-80
2022/09/21 04:25:08;;;;;;;;;;;13.90;69.20;;;;;;6117880;23;20317;-82
2022/09/21 04:27:35;;;;;;;;;;;14.00;68.80;;;;;;6118919;23;19952;-81
2022/09/21 04:30:02;;;;;;;;;;;14.10;69.80;;;;;;6096269;23;19917;-81
2022/09/21 04:32:29;;;;;;;;;;;14.10;71.20;;;;;;6119451;23;19959;-81
2022/09/21 04:34:55;;;;;;;;;;;14.10;71.00;;;;;;6118149;23;19917;-81
2022/09/21 04:37:22;;;;;;;;;;;14.10;70.80;;;;;;6118827;23;20246;-81
2022/09/21 04:39:49;;;;;;;;;;;14.10;70.70;;;;;;6118443;23;20231;-81
2022/09/21 04:42:16;;;;;;;;;;;14.10;73.10;;;;;;6118954;23;19947;-81
2022/09/21 04:44:42;;;;;;;;;;;14.10;72.50;;;;;;6117801;23;19984;-81
2022/09/21 04:47:09;;;;;;;;;;;14.00;71.30;;;;;;6119060;23;20254;-81
2022/09/21 04:49:37;;;;;;;;;;;14.00;70.60;;;;;;6118597;23;20298;-80
2022/09/21 04:52:04;;;;;;;;;;;14.00;67.80;;;;;;6119129;23;19922;-81
2022/09/21 04:54:31;;;;;;;;;;;14.10;66.60;;;;;;6119256;23;19991;-81
2022/09/21 04:56:57;;;;;;;;;;;14.10;66.30;;;;;;6118220;23;20538;-81
2022/09/21 04:59:24;;;;;;;;;;;14.20;66.10;;;;;;6119088;23;20228;-82
2022/09/21 05:01:51;;;;;;;;;;;14.20;66.20;;;;;;6118187;23;19924;-82
2022/09/21 05:04:18;;;;;;;;;;;14.20;66.70;;;;;;6118834;23;19917;-82
2022/09/21 05:06:45;;;;;;;;;;;14.30;66.50;;;;;;6118326;23;19924;-81
2022/09/21 05:11:56;;;;;;;;;;;14.30;65.60;;;;;;6094964;23;19924;-81
2022/09/21 05:14:23;;;;;;;;;;;14.40;65.80;;;;;;6118902;23;20016;-82
2022/09/21 05:16:50;;;;;;;;;;;14.40;66.50;;;;;;6117146;23;19917;-81
2022/09/21 05:19:17;;;;;;;;;;;14.40;66.90;;;;;;6117909;23;19998;-82
2022/09/21 05:21:43;;;;;;;;;;;14.40;68.50;;;;;;6117156;23;19983;-81
2022/09/21 05:24:10;;;;;;;;;;;14.40;69.00;;;;;;6118439;23;19932;-81
2022/09/21 05:26:37;;;;;;;;;;;14.40;70.80;;;;;;6094432;23;19917;-81
2022/09/21 05:29:04;;;;;;;;;;;14.20;75.60;;;;;;6117773;23;19921;-81
2022/09/21 05:31:34;;;;;;;;;;;14.10;77.30;;;;;;6119259;23;19924;-80
2022/09/21 05:34:19;;;;;;;;;;;14.00;78.10;;;;;;6117824;23;20514;-80
2022/09/21 05:36:55;;;;;;;;;;;14.00;78.10;;;;;;6117531;23;19988;-80
2022/09/21 05:39:21;;;;;;;;;;;14.00;75.50;;;;;;6117934;23;19917;-80
2022/09/21 05:41:48;;;;;;;;;;;14.00;74.70;;;;;;6117262;23;20357;-78
2022/09/21 05:44:15;;;;;;;;;;;14.00;75.80;;;;;;6118468;23;19923;-79
2022/09/21 05:46:48;;;;;;;;;;;14.00;77.00;;;;;;6096571;23;19944;-80
2022/09/21 05:49:27;;;;;;;;;;;14.00;79.10;;;;;;6117055;23;19992;-80
2022/09/21 05:51:53;;;;;;;;;;;14.00;78.60;;;;;;6118501;23;20378;-80
2022/09/21 05:54:23;;;;;;;;;;;14.00;78.60;;;;;;6117659;23;19992;-81
2022/09/21 05:57:04;;;;;;;;;;;14.00;76.60;;;;;;6118040;23;19941;-80
2022/09/21 05:59:38;;;;;;;;;;;14.00;75.40;;;;;;6117837;23;19917;-81
2022/09/21 06:02:05;;;;;;;;;;;14.00;73.70;;;;;;6118078;23;19932;-80
2022/09/21 06:04:32;;;;;;;;;;;14.00;72.50;;;;;;6105663;23;19917;-81
2022/09/21 06:06:59;;;;;;;;;;;14.00;72.30;;;;;;6117571;23;19943;-80
2022/09/21 06:09:26;;;;;;;;;;;14.00;71.90;;;;;;6117823;23;19996;-80
2022/09/21 06:11:53;;;;;;;;;;;14.00;70.10;;;;;;6117956;23;19995;-80
2022/09/21 06:14:24;;;;;;;;;;;14.00;70.40;;;;;;6117333;23;20357;-80
2022/09/21 06:16:51;;;;;;;;;;;14.00;70.60;;;;;;6118077;23;20297;-81
2022/09/21 06:19:18;;;;;;;;;;;14.00;70.50;;;;;;6116592;23;20367;-80
2022/09/21 06:21:45;;;;;;;;;;;14.00;70.30;;;;;;6094399;23;19917;-80
2022/09/21 06:24:12;;;;;;;;;;;14.10;70.10;;;;;;6118779;23;20306;-80
2022/09/21 06:26:39;;;;;;;;;;;14.00;70.10;;;;;;6119783;23;19944;-80
2022/09/21 06:29:05;;;;;;;;;;;14.00;70.60;;;;;;6097046;23;20282;-80
2022/09/21 06:31:32;;;;;;;;;;;14.10;71.80;;;;;;6119350;23;20233;-80
2022/09/21 06:33:59;;;;;;;;;;;14.10;72.80;;;;;;6119709;23;19987;-80
2022/09/21 06:36:25;;;;;;;;;;;14.10;72.20;;;;;;6119113;23;19917;-80
2022/09/21 06:38:52;;;;;;;;;;;14.10;72.60;;;;;;6119780;23;19921;-80
2022/09/21 06:41:19;;;;;;;;;;;14.10;73.40;;;;;;6119121;23;19928;-79
2022/09/21 06:43:47;;;;;;;;;;;14.00;73.90;;;;;;6119591;23;19917;-80
2022/09/21 06:46:14;;;;;;;;;;;14.00;74.40;;;;;;6119048;23;19928;-80
2022/09/21 06:48:40;;;;;;;;;;;14.00;76.30;;;;;;6119419;23;19994;-80
2022/09/21 06:51:08;;;;;;;;;;;14.00;78.30;;;;;;6120090;23;19956;-80
2022/09/21 06:53:35;;;;;;;;;;;14.00;79.50;;;;;;6096190;23;19923;-80
2022/09/21 06:56:06;;;;;;;;;;;14.00;77.90;;;;;;6095679;23;19921;-79
2022/09/21 06:58:33;;;;;;;;;;;14.00;79.50;;;;;;6119244;23;19988;-79
2022/09/21 07:01:05;;;;;;;;;;;14.00;80.70;;;;;;6119529;23;19921;-79
2022/09/21 07:03:32;;;;;;;;;;;13.90;81.40;;;;;;6119278;23;19924;-79
2022/09/21 07:05:58;;;;;;;;;;;14.00;82.60;;;;;;6119184;23;19948;-79
2022/09/21 07:08:25;;;;;;;;;;;13.90;82.70;;;;;;6117746;23;19984;-80
2022/09/21 07:11:13;;;;;;;;;;;13.90;83.00;;;;;;6115210;23;19921;-80
2022/09/21 07:13:41;;;;;;;;;;;13.90;85.30;;;;;;6119304;23;19960;-79
2022/09/21 07:16:08;;;;;;;;;;;13.90;85.90;;;;;;6095504;23;19948;-79
2022/09/21 07:18:37;;;;;;;;;;;13.90;86.90;;;;;;6118687;23;20282;-79
2022/09/21 07:21:10;;;;;;;;;;;13.80;87.10;;;;;;6095169;23;19917;-79
2022/09/21 07:23:37;;;;;;;;;;;13.70;87.40;;;;;;6118763;23;19984;-80
2022/09/21 07:26:08;;;;;;;;;;;13.70;89.30;;;;;;6119348;23;19995;-79
2022/09/21 07:28:34;;;;;;;;;;;13.60;89.40;;;;;;6118917;23;19987;-80
2022/09/21 07:31:05;;;;;;;;;;;13.60;89.10;;;;;;6119670;23;19999;-79
2022/09/21 07:33:32;;;;;;;;;;;13.70;89.00;;;;;;6118701;23;19917;-80
2022/09/21 07:36:08;;;;;;;;;;;13.60;89.60;;;;;;6118682;23;20353;-79
2022/09/21 07:38:36;;;;;;;;;;;13.70;90.60;;;;;;6118703;23;20335;-80
2022/09/21 07:41:03;;;;;;;;;;;13.70;90.40;;;;;;6119349;23;19959;-79
2022/09/21 07:43:30;;;;;;;;;;;13.80;90.30;;;;;;6117990;23;19937;-79
2022/09/21 07:45:57;;;;;;;;;;;13.70;91.60;;;;;;6117977;23;19996;-79
2022/09/21 07:48:24;;;;;;;;;;;13.70;91.60;;;;;;6119056;23;19956;-79
2022/09/21 07:50:50;;;;;;;;;;;13.80;91.30;;;;;;6118954;23;19917;-79
2022/09/21 07:53:17;;;;;;;;;;;13.80;91.10;;;;;;6118830;23;19992;-80
2022/09/21 07:55:44;;;;;;;;;;;13.80;92.20;;;;;;6117413;23;19992;-79
2022/09/21 08:00:56;;;;;;;;;;;13.80;92.50;;;;;;6067110;23;19997;-79
2022/09/21 08:03:23;;;;;;;;;;;13.80;93.40;;;;;;6067629;23;19921;-80
2022/09/21 08:05:50;;;;;;;;;;;13.80;93.40;;;;;;6065313;23;19939;-80
2022/09/21 08:08:16;;;;;;;;;;;13.90;93.40;;;;;;6066017;23;19917;-79
2022/09/21 08:10:43;;;;;;;;;;;13.90;92.10;;;;;;6041572;23;19926;-79
2022/09/21 08:13:10;;;;;;;;;;;13.90;91.70;;;;;;6042502;23;19956;-79
2022/09/21 08:15:38;;;;;;;;;;;14.00;91.00;;;;;;6065378;23;19924;-79
2022/09/21 08:18:15;;;;;;;;;;;14.10;90.60;;;;;;6065941;23;19922;-79
2022/09/21 08:20:42;;;;;;;;;;;14.10;89.80;;;;;;6065221;23;20130;-79
2022/09/21 08:23:10;;;;;;;;;;;14.10;89.80;;;;;;6090241;23;20366;-79
2022/09/21 08:25:37;;;;;;;;;;;14.10;89.70;;;;;;6065205;23;19937;-80
2022/09/21 08:28:04;;;;;;;;;;;14.10;88.30;;;;;;6042045;23;19943;-79
2022/09/21 08:30:35;;;;;;;;;;;14.10;87.90;;;;;;6065498;23;19918;-79
2022/09/21 08:33:02;;;;;;;;;;;14.20;88.10;;;;;;6065649;23;19924;-79
2022/09/21 08:35:29;;;;;;;;;;;14.20;88.10;;;;;;6063944;23;19921;-79
2022/09/21 08:37:55;;;;;;;;;;;14.20;86.80;;;;;;6039087;23;20296;-79
2022/09/21 08:40:22;;;;;;;;;;;14.20;86.20;;;;;;6066004;23;19984;-79
2022/09/21 08:43:02;;;;;;;;;;;14.30;87.40;;;;;;6065176;23;19940;-80
2022/09/21 08:45:32;;;;;;;;;;;14.30;89.10;;;;;;6065118;23;19939;-80
2022/09/21 08:48:01;;;;;;;;;;;14.30;88.50;;;;;;6105769;23;20338;-79
2022/09/21 08:50:32;;;;;;;;;;;14.30;88.90;;;;;;6118481;23;19953;-79
2022/09/21 08:53:02;;;;;;;;;;;14.30;88.20;;;;;;6118502;23;19992;-80
2022/09/21 08:55:29;;;;;;;;;;;14.30;87.10;;;;;;6118859;23;19917;-80
2022/09/21 08:57:55;;;;;;;;;;;14.30;86.20;;;;;;6118251;23;19937;-80
2022/09/21 09:00:22;;;;;;;;;;;14.40;84.90;;;;;;6118993;23;19917;-79
2022/09/21 09:03:14;;;;;;;;;;;14.40;85.90;;;;;;6117773;23;19921;-79
2022/09/21 09:05:44;;;;;;;;;;;14.40;85.00;;;;;;6118177;23;19952;-79
2022/09/21 09:08:19;;;;;;;;;;;14.40;84.50;;;;;;6118842;23;19952;-79
2022/09/21 09:10:46;;;;;;;;;;;14.50;84.20;;;;;;6116926;23;19924;-79
2022/09/21 09:13:25;;;;;;;;;;;14.50;84.50;;;;;;6117434;23;19997;-79
2022/09/21 09:15:57;;;;;;;;;;;14.60;83.90;;;;;;6117509;23;19987;-80
2022/09/21 09:18:39;;;;;;;;;;;14.60;85.00;;;;;;6118044;23;19925;-79
2022/09/21 09:21:20;;;;;;;;;;;14.60;82.20;;;;;;6117415;23;20326;-79
2022/09/21 09:24:11;;;;;;;;;;;14.60;84.80;;;;;;6094244;23;19917;-80
2022/09/21 09:26:41;;;;;;;;;;;14.60;84.00;;;;;;6118126;23;19940;-79
2022/09/21 09:29:14;;;;;;;;;;;14.70;84.70;;;;;;6117715;23;19921;-79
2022/09/21 09:31:41;;;;;;;;;;;14.70;82.50;;;;;;6094274;23;20249;-80
2022/09/21 09:34:13;;;;;;;;;;;14.70;80.60;;;;;;6093646;23;19921;-79
2022/09/21 09:36:45;;;;;;;;;;;14.70;81.30;;;;;;6118239;23;19917;-79
2022/09/21 09:39:27;;;;;;;;;;;14.70;81.40;;;;;;6115519;23;20309;-79
2022/09/21 09:41:54;;;;;;;;;;;14.60;83.90;;;;;;6118581;23;20000;-79
2022/09/21 09:44:27;;;;;;;;;;;14.50;85.50;;;;;;6117492;23;20025;-80
2022/09/21 09:46:56;;;;;;;;;;;14.60;87.10;;;;;;6118206;23;20267;-80
2022/09/21 09:49:41;;;;;;;;;;;14.60;87.20;;;;;;6117614;23;20452;-79
2022/09/21 09:52:11;;;;;;;;;;;14.70;86.80;;;;;;6117675;23;20000;-79
2022/09/21 09:54:38;;;;;;;;;;;14.70;80.90;;;;;;6118127;23;19917;-80
2022/09/21 09:57:04;;;;;;;;;;;14.80;78.60;;;;;;6117710;23;19917;-80
2022/09/21 09:59:47;;;;;;;;;;;14.90;79.10;;;;;;6120454;23;19921;-79
2022/09/21 10:02:21;;;;;;;;;;;15.00;79.90;;;;;;6117632;23;19921;-79
2022/09/21 10:05:05;;;;;;;;;;;15.00;77.50;;;;;;6119660;23;19921;-79
2022/09/21 10:07:33;;;;;;;;;;;15.10;78.60;;;;;;6083095;23;19917;-80
2022/09/21 10:09:59;;;;;;;;;;;15.10;79.20;;;;;;6119757;23;19917;-80
2022/09/21 10:12:26;;;;;;;;;;;15.20;78.10;;;;;;6120185;23;20246;-80
2022/09/21 10:14:55;;;;;;;;;;;15.20;78.70;;;;;;6094995;23;20342;-79
2022/09/21 10:17:23;;;;;;;;;;;15.30;77.70;;;;;;6094551;23;19944;-79
2022/09/21 10:20:00;;;;;;;;;;;15.30;76.00;;;;;;6095355;23;19997;-79
2022/09/21 10:22:28;;;;;;;;;;;15.30;72.30;;;;;;6119640;23;19917;-79
2022/09/21 10:24:57;;;;;;;;;;;15.30;72.50;;;;;;6096015;23;19940;-79
2022/09/21 10:27:29;;;;;;;;;;;15.30;72.90;;;;;;6119009;23;19992;-80
2022/09/21 10:29:56;;;;;;;;;;;15.30;71.90;;;;;;6119144;23;19924;-81
2022/09/21 10:32:26;;;;;;;;;;;15.40;74.60;;;;;;6119588;23;20302;-81
2022/09/21 10:35:09;;;;;;;;;;;15.40;75.10;;;;;;6119602;23;19960;-80
2022/09/21 10:37:39;;;;;;;;;;;15.50;73.80;;;;;;6119647;23;19924;-80
2022/09/21 10:40:18;;;;;;;;;;;15.50;72.70;;;;;;6096427;23;19985;-80
2022/09/21 10:42:47;;;;;;;;;;;15.50;74.60;;;;;;6107140;23;19921;-81
2022/09/21 10:45:16;;;;;;;;;;;15.50;75.10;;;;;;6119740;23;19988;-80
2022/09/21 10:47:45;;;;;;;;;;;15.60;76.20;;;;;;6119077;23;19988;-80
2022/09/21 10:50:31;;;;;;;;;;;15.70;75.30;;;;;;6120253;23;19987;-81
2022/09/21 10:53:10;;;;;;;;;;;15.80;74.50;;;;;;6119749;23;19917;-80
2022/09/21 10:55:38;;;;;;;;;;;15.90;71.40;;;;;;6119257;23;19966;-80
2022/09/21 10:58:18;;;;;;;;;;;15.90;68.30;;;;;;6117624;23;19945;-80
2022/09/21 11:00:50;;;;;;;;;;;16.00;68.10;;;;;;6119151;23;19918;-81
2022/09/21 11:03:40;;;;;;;;;;;16.00;68.80;;;;;;6119855;23;19941;-81
2022/09/21 11:06:16;;;;;;;;;;;16.10;69.60;;;;;;6095068;23;20291;-81
2022/09/21 11:08:42;;;;;;;;;;;16.20;68.50;;;;;;6119008;23;19985;-81
2022/09/21 11:11:24;;;;;;;;;;;16.40;68.20;;;;;;6120006;23;19917;-80
2022/09/21 11:14:06;;;;;;;;;;;16.40;68.60;;;;;;6119414;23;20271;-81
2022/09/21 11:16:40;;;;;;;;;;;16.40;68.20;;;;;;6120243;23;19992;-81
2022/09/21 11:19:19;;;;;;;;;;;16.60;69.40;;;;;;6096204;23;19924;-81
2022/09/21 11:21:50;;;;;;;;;;;16.60;67.60;;;;;;6118994;23;19917;-80
2022/09/21 11:24:36;;;;;;;;;;;16.60;69.50;;;;;;6119930;23;19984;-81
2022/09/21 11:27:16;;;;;;;;;;;16.80;67.80;;;;;;6118714;23;20493;-81
2022/09/21 11:29:46;;;;;;;;;;;16.80;66.60;;;;;;6119579;23;20335;-81
2022/09/21 11:32:22;;;;;;;;;;;16.90;66.30;;;;;;6067796;23;19917;-81
2022/09/21 11:34:57;;;;;;;;;;;17.00;65.60;;;;;;6065792;23;19933;-81
2022/09/21 11:37:35;;;;;;;;;;;17.10;65.70;;;;;;6067206;23;19988;-81
2022/09/21 11:40:20;;;;;;;;;;;17.10;66.60;;;;;;6066111;23;19996;-81
2022/09/21 11:42:53;;;;;;;;;;;17.20;66.20;;;;;;6066530;23;19925;-81
2022/09/21 11:45:25;;;;;;;;;;;17.30;66.30;;;;;;6066371;23;20246;-81
2022/09/21 11:47:52;;;;;;;;;;;17.40;64.00;;;;;;6067249;23;20319;-81
2022/09/21 11:50:27;;;;;;;;;;;17.30;63.90;;;;;;6065573;23;20292;-81
2022/09/21 11:53:13;;;;;;;;;;;17.30;63.90;;;;;;6066149;23;20353;-81
2022/09/21 11:55:43;;;;;;;;;;;17.30;63.40;;;;;;6066725;23;19992;-81
2022/09/21 11:58:14;;;;;;;;;;;17.30;64.30;;;;;;6065724;23;20250;-81
2022/09/21 12:00:50;;;;;;;;;;;17.30;63.40;;;;;;6066739;23;19918;-80
2022/09/21 12:03:55;;;;;;;;;;;17.30;63.90;;;;;;6065889;23;19917;-81
2022/09/21 12:06:22;;;;;;;;;;;17.40;63.10;;;;;;6036261;23;19924;-81
2022/09/21 12:09:06;;;;;;;;;;;17.30;62.60;;;;;;6036838;23;19921;-81
2022/09/21 12:11:42;;;;;;;;;;;17.40;63.10;;;;;;6083189;23;19952;-81
2022/09/21 12:14:28;;;;;;;;;;;17.40;63.20;;;;;;6118645;23;19921;-81
2022/09/21 12:17:04;;;;;;;;;;;17.50;63.40;;;;;;6119620;23;19984;-81
2022/09/21 12:19:47;;;;;;;;;;;17.50;63.60;;;;;;6118441;23;19917;-82
2022/09/21 12:22:27;;;;;;;;;;;17.70;63.40;;;;;;6092064;23;20012;-81
2022/09/21 12:25:09;;;;;;;;;;;17.50;63.00;;;;;;6119273;23;19921;-81
2022/09/21 12:27:38;;;;;;;;;;;17.40;62.10;;;;;;6118711;23;19923;-80
2022/09/21 12:30:21;;;;;;;;;;;17.40;61.90;;;;;;6118707;23;19925;-80
2022/09/21 12:32:52;;;;;;;;;;;17.50;62.50;;;;;;6118236;23;19992;-80
2022/09/21 12:35:28;;;;;;;;;;;17.50;63.60;;;;;;6118683;23;19988;-80
2022/09/21 12:38:02;;;;;;;;;;;17.60;63.10;;;;;;6117600;23;19992;-80
2022/09/21 12:40:36;;;;;;;;;;;17.80;62.80;;;;;;6118550;23;19992;-80
2022/09/21 12:43:09;;;;;;;;;;;17.90;62.60;;;;;;6094866;23;19932;-81
2022/09/21 12:45:43;;;;;;;;;;;17.90;61.70;;;;;;6118472;23;20277;-81
2022/09/21 12:48:09;;;;;;;;;;;17.90;61.60;;;;;;6118297;23;19924;-81
2022/09/21 12:50:39;;;;;;;;;;;17.90;62.10;;;;;;6118623;23;19917;-81
2022/09/21 12:53:10;;;;;;;;;;;18.00;62.20;;;;;;6117846;23;19924;-80
2022/09/21 12:55:36;;;;;;;;;;;18.00;62.10;;;;;;6094672;23;19917;-80
2022/09/21 12:58:10;;;;;;;;;;;18.00;61.50;;;;;;6118167;23;19976;-80
2022/09/21 13:00:51;;;;;;;;;;;17.80;59.60;;;;;;6117999;23;20338;-80
2022/09/21 13:03:21;;;;;;;;;;;17.50;61.00;;;;;;6118031;23;19921;-81
2022/09/21 13:05:55;;;;;;;;;;;17.50;61.90;;;;;;6118524;23;19921;-80
2022/09/21 13:08:27;;;;;;;;;;;17.60;62.20;;;;;;6118178;23;19917;-80
2022/09/21 13:10:54;;;;;;;;;;;17.60;61.90;;;;;;6093813;23;19988;-80
2022/09/21 13:13:24;;;;;;;;;;;17.50;61.80;;;;;;6117662;23;19944;-80
2022/09/21 13:15:52;;;;;;;;;;;17.60;62.10;;;;;;6118248;23;19996;-80
2022/09/21 13:18:22;;;;;;;;;;;17.80;62.20;;;;;;6093856;23;19959;-81
2022/09/21 13:20:50;;;;;;;;;;;17.80;62.00;;;;;;6117508;23;20303;-80
2022/09/21 13:23:23;;;;;;;;;;;17.80;62.00;;;;;;6117068;23;20224;-81
2022/09/21 13:26:06;;;;;;;;;;;17.80;61.80;;;;;;6117935;23;20357;-80
2022/09/21 13:28:56;;;;;;;;;;;17.90;61.70;;;;;;6115956;23;19992;-81
2022/09/21 13:31:29;;;;;;;;;;;17.90;61.80;;;;;;6085936;23;19921;-80
2022/09/21 13:34:26;;;;;;;;;;;17.90;61.80;;;;;;6118390;23;20302;-80
2022/09/21 13:37:12;;;;;;;;;;;18.00;62.20;;;;;;6119812;23;20017;-81
2022/09/21 13:39:43;;;;;;;;;;;18.00;61.70;;;;;;6119366;23;19921;-81
2022/09/21 13:42:28;;;;;;;;;;;18.00;62.20;;;;;;6117828;23;20427;-80
2022/09/21 13:44:56;;;;;;;;;;;17.90;61.40;;;;;;6119059;23;19949;-80
2022/09/21 13:47:34;;;;;;;;;;;17.90;61.20;;;;;;6117928;23;19948;-81
2022/09/21 13:50:09;;;;;;;;;;;17.90;61.20;;;;;;6118512;23;19949;-81
2022/09/21 13:52:39;;;;;;;;;;;17.90;60.20;;;;;;6118754;23;19983;-81
2022/09/21 13:55:16;;;;;;;;;;;17.70;62.00;;;;;;6094776;23;20342;-81
2022/09/21 13:57:48;;;;;;;;;;;17.80;62.70;;;;;;6118709;23;19918;-80
2022/09/21 14:00:18;;;;;;;;;;;17.90;61.40;;;;;;6120407;23;20328;-80
2022/09/21 14:02:55;;;;;;;;;;;17.80;62.10;;;;;;6119244;23;19951;-80
2022/09/21 14:05:37;;;;;;;;;;;17.90;61.10;;;;;;6119990;23;19968;-80
2022/09/21 14:08:04;;;;;;;;;;;17.90;61.30;;;;;;6118875;23;20246;-80
2022/09/21 14:10:34;;;;;;;;;;;17.90;61.60;;;;;;6119675;23;20224;-80
2022/09/21 14:13:02;;;;;;;;;;;17.80;61.30;;;;;;6119334;23;19917;-80
2022/09/21 14:15:31;;;;;;;;;;;17.90;62.10;;;;;;6120000;23;19941;-80
2022/09/21 14:18:16;;;;;;;;;;;17.90;61.90;;;;;;6093817;23;20235;-81
2022/09/21 14:21:21;;;;;;;;;;;17.90;61.50;;;;;;6117843;23;19992;-80
2022/09/21 14:24:03;;;;;;;;;;;17.80;61.50;;;;;;6034351;23;19952;-80
2022/09/21 14:26:35;;;;;;;;;;;17.90;61.40;;;;;;6035311;23;20252;-80
2022/09/21 14:29:07;;;;;;;;;;;17.90;61.20;;;;;;6071926;23;20231;-81
2022/09/21 14:31:36;;;;;;;;;;;17.90;60.80;;;;;;6119126;23;19921;-80
2022/09/21 14:34:09;;;;;;;;;;;17.80;61.50;;;;;;6117888;23;19944;-80
2022/09/21 14:36:42;;;;;;;;;;;17.80;61.40;;;;;;6119051;23;19921;-80
2022/09/21 14:39:16;;;;;;;;;;;17.80;61.30;;;;;;6118216;23;19996;-80
2022/09/21 14:41:43;;;;;;;;;;;17.80;61.70;;;;;;6119212;23;19917;-81
2022/09/21 14:44:18;;;;;;;;;;;17.80;61.30;;;;;;6117493;23;19952;-81